createdAt,value
2023-04-20T00:01:25.863Z,3.86
2023-04-20T00:03:52.765Z,3.87
2023-04-20T00:06:21.980Z,3.31
2023-04-20T00:08:49.066Z,3.55
2023-04-20T00:11:15.953Z,3.62
2023-04-20T00:13:42.916Z,2.94
2023-04-20T00:16:09.653Z,3.05
2023-04-20T00:18:36.339Z,2.90
2023-04-20T00:21:26.229Z,2.91
2023-04-20T00:23:53.417Z,2.97
2023-04-20T00:26:31.580Z,2.35
2023-04-20T00:28:58.351Z,2.63
2023-04-20T00:31:28.077Z,1.95
2023-04-20T00:33:54.904Z,1.98
2023-04-20T00:36:21.971Z,2.02
2023-04-20T00:38:48.879Z,1.43
2023-04-20T00:41:15.739Z,2.16
2023-04-20T00:44:01.018Z,1.79
2023-04-20T00:46:27.976Z,0.37
2023-04-20T00:49:12.389Z,1.90
2023-04-20T00:51:39.423Z,1.91
2023-04-20T00:54:06.427Z,2.08
2023-04-20T00:56:33.157Z,1.87
2023-04-20T00:59:05.085Z,2.29
2023-04-20T01:01:32.017Z,1.96
2023-04-20T01:03:58.923Z,1.77
2023-04-20T01:06:31.892Z,1.83
2023-04-20T01:08:58.702Z,1.63
2023-04-20T01:11:25.450Z,1.29
2023-04-20T01:14:11.555Z,2.18
2023-04-20T01:16:38.205Z,2.25
2023-04-20T01:19:05.052Z,2.26
2023-04-20T01:21:35.440Z,2.26
2023-04-20T01:24:02.361Z,0.68
2023-04-20T01:26:29.371Z,2.19
2023-04-20T01:29:26.174Z,2.11
2023-04-20T01:31:52.996Z,1.62
2023-04-20T01:34:19.658Z,1.53
2023-04-20T01:36:46.554Z,2.18
2023-04-20T01:39:13.442Z,0.55
2023-04-20T01:41:40.858Z,0.98
2023-04-20T01:44:07.537Z,0.88
2023-04-20T01:46:37.782Z,0.71
2023-04-20T01:53:04.328Z,1.17
2023-04-20T01:55:31.002Z,1.19
2023-04-20T01:58:31.394Z,1.48
2023-04-20T02:00:58.199Z,1.46
2023-04-20T02:03:26.854Z,1.30
2023-04-20T02:05:54.345Z,1.32
2023-04-20T02:08:21.319Z,1.28
2023-04-20T02:10:47.980Z,-0.32
2023-04-20T02:13:22.026Z,0.94
2023-04-20T02:15:48.691Z,0.72
2023-04-20T02:18:19.608Z,1.10
2023-04-20T02:20:46.475Z,0.07
2023-04-20T02:23:13.666Z,0.08
2023-04-20T02:26:28.724Z,0.95
2023-04-20T02:28:55.553Z,0.15
2023-04-20T02:31:22.516Z,-0.01
2023-04-20T02:34:12.396Z,0.83
2023-04-20T02:36:39.378Z,-0.20
2023-04-20T02:39:06.209Z,0.34
2023-04-20T02:45:33.465Z,0.79
2023-04-20T02:48:00.796Z,0.78
2023-04-20T02:50:30.943Z,0.09
2023-04-20T02:53:19.152Z,0.12
2023-04-20T02:55:50.989Z,0.26
2023-04-20T02:58:36.314Z,0.26
2023-04-20T03:01:50.370Z,0.62
2023-04-20T03:04:22.326Z,-0.11
2023-04-20T03:10:42.347Z,0.06
2023-04-20T03:13:27.095Z,0.63
2023-04-20T03:15:57.033Z,0.81
2023-04-20T03:18:56.747Z,0.53
2023-04-20T03:21:23.764Z,-1.02
2023-04-20T03:23:50.591Z,0.52
2023-04-20T03:26:17.906Z,-0.07
2023-04-20T03:32:54.691Z,-0.90
2023-04-20T03:35:41.004Z,0.23
2023-04-20T03:38:08.014Z,-0.09
2023-04-20T03:40:34.856Z,-0.83
2023-04-20T03:43:02.595Z,-0.69
2023-04-20T03:45:29.597Z,0.15
2023-04-20T03:47:56.561Z,-0.65
2023-04-20T03:50:24.904Z,0.42
2023-04-20T03:52:51.830Z,0.39
2023-04-20T03:55:18.634Z,-0.04
2023-04-20T03:57:51.223Z,0.19
2023-04-20T04:00:20.669Z,0.02
2023-04-20T04:02:47.356Z,-0.46
2023-04-20T04:05:20.104Z,-0.72
2023-04-20T04:07:52.825Z,-2.21
2023-04-20T04:10:20.360Z,-0.55
2023-04-20T04:13:20.605Z,-0.08
2023-04-20T04:15:47.238Z,-1.50
2023-04-20T04:18:15.200Z,0.18
2023-04-20T04:20:42.482Z,-0.17
2023-04-20T04:23:11.718Z,0.09
2023-04-20T04:25:46.704Z,-0.83
2023-04-20T04:28:14.898Z,0.13
2023-04-20T04:31:12.394Z,-0.78
2023-04-20T04:33:49.907Z,-0.69
2023-04-20T04:36:36.946Z,-0.58
2023-04-20T04:39:12.571Z,-1.13
2023-04-20T04:41:46.015Z,-1.67
2023-04-20T04:44:21.356Z,-1.09
2023-04-20T04:47:29.900Z,-0.05
2023-04-20T04:49:56.675Z,0.13
2023-04-20T04:56:23.655Z,1.49
2023-04-20T04:58:50.930Z,-0.09
2023-04-20T05:01:39.812Z,1.52
2023-04-20T05:04:07.153Z,1.29
2023-04-20T05:07:10.543Z,0.96
2023-04-20T05:09:38.024Z,-2.12
2023-04-20T05:12:06.990Z,-0.88
2023-04-20T05:14:36.470Z,-0.23
2023-04-20T05:17:03.848Z,0.09
2023-04-20T05:19:30.824Z,-0.87
2023-04-20T05:22:00.282Z,-0.93
2023-04-20T05:24:29.806Z,-0.94
2023-04-20T05:30:43.476Z,0.70
2023-04-20T05:33:19.497Z,-0.24
2023-04-20T05:35:48.999Z,0.81
2023-04-20T05:38:18.938Z,0.00
2023-04-20T05:40:47.106Z,0.18
2023-04-20T05:43:14.769Z,-0.17
2023-04-20T05:45:41.794Z,1.01
2023-04-20T05:48:13.757Z,-0.77
2023-04-20T05:50:40.799Z,0.78
2023-04-20T05:53:31.512Z,1.26
2023-04-20T05:55:58.331Z,1.05
2023-04-20T05:58:25.737Z,0.39
2023-04-20T06:00:52.523Z,1.48
2023-04-20T06:03:22.688Z,1.49
2023-04-20T06:05:52.185Z,0.61
2023-04-20T06:08:19.495Z,1.81
2023-04-20T06:10:46.429Z,0.88
2023-04-20T06:13:13.134Z,1.90
2023-04-20T06:22:37.262Z,1.58
2023-04-20T06:25:04.832Z,2.56
2023-04-20T06:27:31.615Z,1.80
2023-04-20T06:29:58.586Z,2.86
2023-04-20T06:32:25.476Z,1.08
2023-04-20T06:34:52.902Z,2.14
2023-04-20T06:37:20.635Z,3.16
2023-04-20T06:39:47.620Z,2.13
2023-04-20T06:42:21.495Z,0.85
2023-04-20T06:44:48.347Z,0.82
2023-04-20T06:47:16.231Z,2.46
2023-04-20T06:49:43.568Z,2.63
2023-04-20T06:52:11.745Z,1.78
2023-04-20T06:54:41.361Z,2.81
2023-04-20T06:57:10.314Z,3.03
2023-04-20T06:59:37.157Z,2.66
2023-04-20T07:02:04.321Z,-0.02
2023-04-20T07:04:35.285Z,2.06
2023-04-20T07:07:02.205Z,1.04
2023-04-20T07:09:29.135Z,2.95
2023-04-20T07:11:56.540Z,2.14
2023-04-20T07:14:23.408Z,1.00
2023-04-20T07:16:54.120Z,2.41
2023-04-20T07:19:21.267Z,1.36
2023-04-20T07:21:48.196Z,1.11
2023-04-20T07:24:15.243Z,1.15
2023-04-20T07:26:44.116Z,2.77
2023-04-20T07:29:13.789Z,2.97
2023-04-20T07:31:40.834Z,0.47
2023-04-20T07:34:07.667Z,2.87
2023-04-20T07:36:39.213Z,2.93
2023-04-20T07:39:06.212Z,2.23
2023-04-20T07:41:33.015Z,3.92
2023-04-20T07:43:59.830Z,3.16
2023-04-20T07:46:34.014Z,3.76
2023-04-20T07:49:00.736Z,3.56
2023-04-20T07:51:30.534Z,2.06
2023-04-20T07:53:57.487Z,2.19
2023-04-20T07:56:24.309Z,3.70
2023-04-20T07:58:51.099Z,4.33
2023-04-20T08:01:17.978Z,2.56
2023-04-20T08:03:45.082Z,2.50
2023-04-20T08:06:12.188Z,2.31
2023-04-20T08:08:40.079Z,3.79
2023-04-20T08:11:08.332Z,2.83
2023-04-20T08:13:36.836Z,2.52
2023-04-20T08:16:03.672Z,3.02
2023-04-20T08:19:10.351Z,4.25
2023-04-20T08:21:41.011Z,4.20
2023-04-20T08:24:08.662Z,3.96
2023-04-20T08:26:36.596Z,1.61
2023-04-20T08:29:04.330Z,3.86
2023-04-20T08:31:32.372Z,3.87
2023-04-20T08:33:59.465Z,4.24
2023-04-20T08:36:26.918Z,3.82
2023-04-20T08:38:57.915Z,2.05
2023-04-20T08:41:26.052Z,4.66
2023-04-20T08:43:52.955Z,3.07
2023-04-20T08:46:20.109Z,3.10
2023-04-20T08:48:48.746Z,4.66
2023-04-20T08:51:17.413Z,3.73
2023-04-20T08:53:44.450Z,3.20
2023-04-20T08:56:11.684Z,5.41
2023-04-20T08:58:42.313Z,4.26
2023-04-20T09:01:11.154Z,6.03
2023-04-20T09:03:41.370Z,6.13
2023-04-20T09:06:18.885Z,5.77
2023-04-20T09:08:46.810Z,4.15
2023-04-20T09:11:34.887Z,3.83
2023-04-20T09:14:24.562Z,5.61
2023-04-20T09:16:52.554Z,5.95
2023-04-20T09:19:27.091Z,5.66
2023-04-20T09:21:56.598Z,3.50
2023-04-20T09:24:33.486Z,3.98
2023-04-20T09:27:28.885Z,6.94
2023-04-20T09:30:01.245Z,5.39
2023-04-20T09:32:29.046Z,6.14
2023-04-20T09:34:57.028Z,6.17
2023-04-20T09:37:47.710Z,5.51
2023-04-20T09:40:14.908Z,4.77
2023-04-20T09:42:43.585Z,6.61
2023-04-20T09:45:14.845Z,6.04
2023-04-20T09:47:43.139Z,7.25
2023-04-20T09:50:26.739Z,7.28
2023-04-20T09:53:00.474Z,7.97
2023-04-20T09:55:28.155Z,6.89
2023-04-20T09:57:56.978Z,7.60
2023-04-20T10:00:23.917Z,5.98
2023-04-20T10:02:53.866Z,6.92
2023-04-20T10:05:32.239Z,7.84
2023-04-20T10:08:00.890Z,6.33
2023-04-20T10:10:30.427Z,5.36
2023-04-20T10:13:00.136Z,6.98
2023-04-20T10:15:41.259Z,6.31
2023-04-20T10:18:20.045Z,5.48
2023-04-20T10:20:47.427Z,5.49
2023-04-20T10:23:59.179Z,6.19
2023-04-20T10:26:41.867Z,5.94
2023-04-20T10:29:09.223Z,6.43
2023-04-20T10:35:26.429Z,5.28
2023-04-20T10:37:53.205Z,4.58
2023-04-20T10:40:40.399Z,5.98
2023-04-20T10:47:09.235Z,6.05
2023-04-20T10:50:15.131Z,6.64
2023-04-20T10:53:32.050Z,6.87
2023-04-20T10:56:00.228Z,5.88
2023-04-20T10:58:27.159Z,5.14
2023-04-20T11:00:58.306Z,7.08
2023-04-20T11:03:26.332Z,6.87
2023-04-20T11:05:53.327Z,5.71
2023-04-20T11:08:20.356Z,5.90
2023-04-20T11:10:47.254Z,4.84
2023-04-20T11:13:25.845Z,6.77
2023-04-20T11:15:53.736Z,6.80
2023-04-20T11:18:51.631Z,5.85
2023-04-20T11:21:20.977Z,6.50
2023-04-20T11:23:50.501Z,5.15
2023-04-20T11:26:17.386Z,6.89
2023-04-20T11:28:56.229Z,6.01
2023-04-20T11:31:24.272Z,4.08
2023-04-20T11:33:51.434Z,6.83
2023-04-20T11:36:44.914Z,6.79
2023-04-20T11:39:36.323Z,6.96
2023-04-20T11:42:28.881Z,6.93
2023-04-20T11:44:56.584Z,6.29
2023-04-20T11:47:25.814Z,5.63
2023-04-20T11:49:52.678Z,6.51
2023-04-20T11:52:19.794Z,6.47
2023-04-20T11:54:46.950Z,6.40
2023-04-20T11:57:19.043Z,6.97
2023-04-20T11:59:48.947Z,7.25
2023-04-20T12:02:16.187Z,7.27
2023-04-20T12:04:43.264Z,6.16
2023-04-20T12:07:45.417Z,6.97
2023-04-20T12:10:33.993Z,7.09
2023-04-20T12:13:04.375Z,6.13
2023-04-20T12:15:43.477Z,7.02
2023-04-20T12:18:26.256Z,7.18
2023-04-20T12:20:55.533Z,6.86
2023-04-20T12:23:22.580Z,6.73
2023-04-20T12:26:10.013Z,7.05
2023-04-20T12:28:37.969Z,5.54
2023-04-20T12:31:38.050Z,7.37
2023-04-20T12:34:48.998Z,7.63
2023-04-20T12:37:41.817Z,7.72
2023-04-20T12:40:26.999Z,7.45
2023-04-20T12:46:48.170Z,6.79
2023-04-20T12:49:14.968Z,6.48
2023-04-20T12:51:41.867Z,6.00
2023-04-20T13:02:09.225Z,5.88
2023-04-20T13:12:41.900Z,3.26
2023-04-20T13:15:09.631Z,4.00
2023-04-20T13:17:48.849Z,3.34
2023-04-20T13:20:21.334Z,3.75
2023-04-20T13:23:29.022Z,4.78
2023-04-20T13:25:59.327Z,4.16
2023-04-20T13:28:26.332Z,3.56
2023-04-20T13:31:10.663Z,4.48
2023-04-20T13:33:37.485Z,3.79
2023-04-20T13:36:04.860Z,3.65
2023-04-20T13:38:38.210Z,5.19
2023-04-20T13:41:05.365Z,4.37
2023-04-20T13:43:57.960Z,5.33
2023-04-20T13:46:25.107Z,4.95
2023-04-20T13:49:16.993Z,5.28
2023-04-20T13:51:44.001Z,3.75
2023-04-20T13:54:11.183Z,5.47
2023-04-20T13:56:38.127Z,2.74
2023-04-20T13:59:04.982Z,4.74
2023-04-20T14:01:45.257Z,4.70
2023-04-20T14:04:12.345Z,4.01
2023-04-20T14:06:39.332Z,4.80
2023-04-20T14:09:08.268Z,3.81
2023-04-20T14:11:37.588Z,4.63
2023-04-20T14:14:04.556Z,4.53
2023-04-20T14:16:31.662Z,5.52
2023-04-20T14:19:01.062Z,4.72
2023-04-20T14:21:28.031Z,4.71
2023-04-20T14:23:56.145Z,4.28
2023-04-20T14:26:44.203Z,5.90
2023-04-20T14:29:11.210Z,5.46
2023-04-20T14:31:38.781Z,5.65
2023-04-20T14:34:15.754Z,6.21
2023-04-20T14:36:43.029Z,5.16
2023-04-20T14:39:24.393Z,4.81
2023-04-20T14:41:51.310Z,4.81
2023-04-20T14:44:18.285Z,4.72
2023-04-20T14:46:45.676Z,5.50
2023-04-20T14:49:12.713Z,6.29
2023-04-20T14:51:41.912Z,6.87
2023-04-20T14:54:08.841Z,5.64
2023-04-20T14:57:04.648Z,6.83
2023-04-20T14:59:33.697Z,6.31
2023-04-20T15:02:03.314Z,5.81
2023-04-20T15:04:30.776Z,5.00
2023-04-20T15:07:14.231Z,6.35
2023-04-20T15:09:41.171Z,5.69
2023-04-20T15:12:07.949Z,5.70
2023-04-20T15:14:34.858Z,4.39
2023-04-20T15:17:01.596Z,5.10
2023-04-20T15:19:28.461Z,5.91
2023-04-20T15:21:55.479Z,4.42
2023-04-20T15:24:22.254Z,5.15
2023-04-20T15:26:49.198Z,6.10
2023-04-20T15:29:16.336Z,5.90
2023-04-20T15:31:45.614Z,4.44
2023-04-20T15:34:15.410Z,3.51
2023-04-20T15:36:43.653Z,4.95
2023-04-20T15:39:10.782Z,4.32
2023-04-20T15:41:55.172Z,5.42
2023-04-20T15:44:21.938Z,5.68
2023-04-20T15:47:06.144Z,4.11
2023-04-20T15:49:35.842Z,5.63
2023-04-20T15:52:04.295Z,4.20
2023-04-20T15:54:40.306Z,4.85
2023-04-20T15:57:07.432Z,3.82
2023-04-20T15:59:34.275Z,4.90
2023-04-20T16:02:01.388Z,5.81
2023-04-20T16:05:00.625Z,5.70
2023-04-20T16:07:27.430Z,5.27
2023-04-20T16:09:54.319Z,5.78
2023-04-20T16:12:21.457Z,5.86
2023-04-20T16:14:49.111Z,5.24
2023-04-20T16:17:17.275Z,4.03
2023-04-20T16:20:06.640Z,5.76
2023-04-20T16:22:33.307Z,5.62
2023-04-20T16:25:00.156Z,5.47
2023-04-20T16:27:37.320Z,4.90
2023-04-20T16:30:07.439Z,5.80
2023-04-20T16:32:50.825Z,5.07
2023-04-20T16:35:17.801Z,4.39
2023-04-20T16:37:45.472Z,5.26
2023-04-20T16:40:12.570Z,6.28
2023-04-20T16:43:09.756Z,6.38
2023-04-20T16:45:37.892Z,6.41
2023-04-20T16:48:05.034Z,6.25
2023-04-20T16:50:32.453Z,4.84
2023-04-20T16:52:59.348Z,5.30
2023-04-20T16:55:26.398Z,4.95
2023-04-20T16:57:59.900Z,6.71
2023-04-20T17:04:23.712Z,5.35
2023-04-20T17:06:51.852Z,5.90
2023-04-20T17:13:18.908Z,6.35
2023-04-20T17:15:46.424Z,6.25
2023-04-20T17:18:13.288Z,6.77
2023-04-20T17:20:49.669Z,6.79
2023-04-20T17:23:17.744Z,5.91
2023-04-20T17:25:47.427Z,6.71
2023-04-20T17:28:14.466Z,6.43
2023-04-20T17:31:06.308Z,6.88
2023-04-20T17:33:34.811Z,5.18
2023-04-20T17:36:28.992Z,6.81
2023-04-20T17:38:55.919Z,6.40
2023-04-20T17:41:26.885Z,5.48
2023-04-20T17:44:21.471Z,6.84
2023-04-20T17:46:52.970Z,5.05
2023-04-20T17:49:19.914Z,4.48
2023-04-20T17:51:46.658Z,5.89
2023-04-20T17:54:16.395Z,5.71
2023-04-20T17:57:28.239Z,6.82
2023-04-20T17:59:55.232Z,5.62
2023-04-20T18:02:36.825Z,6.08
2023-04-20T18:09:05.060Z,6.07
2023-04-20T18:11:31.825Z,5.79
2023-04-20T18:14:14.439Z,5.63
2023-04-20T18:16:41.480Z,4.87
2023-04-20T18:19:08.568Z,4.69
2023-04-20T18:21:35.785Z,4.00
2023-04-20T18:24:04.504Z,6.03
2023-04-20T18:26:58.388Z,5.98
2023-04-20T18:29:25.132Z,5.06
2023-04-20T18:31:53.715Z,5.10
2023-04-20T18:34:20.971Z,4.27
2023-04-20T18:36:47.893Z,4.75
2023-04-20T18:39:15.331Z,5.42
2023-04-20T18:41:42.369Z,3.92
2023-04-20T18:44:20.564Z,4.97
2023-04-20T18:46:48.878Z,5.53
2023-04-20T18:49:51.724Z,5.55
2023-04-20T18:52:50.825Z,5.38
2023-04-20T18:55:17.675Z,5.40
2023-04-20T19:01:45.422Z,5.50
2023-04-20T19:04:12.519Z,4.63
2023-04-20T19:07:20.103Z,5.43
2023-04-20T19:09:48.909Z,5.38
2023-04-20T19:12:15.682Z,5.26
2023-04-20T19:14:42.418Z,4.41
2023-04-20T19:17:09.481Z,5.29
2023-04-20T19:19:36.250Z,5.30
2023-04-20T19:22:04.196Z,5.30
2023-04-20T19:24:34.750Z,4.44
2023-04-20T19:27:02.312Z,3.63
2023-04-20T19:29:29.584Z,5.35
2023-04-20T19:31:57.369Z,5.24
2023-04-20T19:39:04.430Z,5.30
2023-04-20T19:41:31.197Z,5.23
2023-04-20T19:44:28.469Z,5.36
2023-04-20T19:46:55.618Z,4.09
2023-04-20T19:49:24.084Z,5.65
2023-04-20T19:51:50.974Z,5.66
2023-04-20T19:54:17.784Z,4.01
2023-04-20T19:56:44.826Z,5.35
2023-04-20T19:59:11.686Z,3.75
2023-04-20T20:01:38.687Z,4.06
2023-04-20T20:04:06.127Z,5.05
2023-04-20T20:06:33.450Z,5.06
2023-04-20T20:09:00.530Z,3.30
2023-04-20T20:15:21.452Z,4.95
2023-04-20T20:17:48.214Z,4.43
2023-04-20T20:20:17.816Z,4.90
2023-04-20T20:22:48.712Z,4.18
2023-04-20T20:25:33.371Z,4.64
2023-04-20T20:28:01.370Z,4.47
2023-04-20T20:30:28.257Z,4.78
2023-04-20T20:32:55.077Z,3.35
2023-04-20T20:35:48.078Z,4.92
2023-04-20T20:38:14.961Z,4.09
2023-04-20T20:40:42.473Z,4.51
2023-04-20T20:43:37.713Z,4.93
2023-04-20T20:46:04.707Z,3.95
2023-04-20T20:48:33.688Z,3.76
2023-04-20T20:51:00.624Z,3.26
2023-04-20T20:53:27.384Z,4.99
2023-04-20T20:55:54.526Z,4.60
2023-04-20T20:58:38.779Z,4.37
2023-04-20T21:01:05.620Z,4.21
2023-04-20T21:03:32.977Z,3.32
2023-04-20T21:06:00.133Z,4.03
2023-04-20T21:08:33.038Z,4.13
2023-04-20T21:11:01.558Z,1.87
2023-04-20T21:13:28.303Z,3.44
2023-04-20T21:15:57.141Z,5.13
2023-04-20T21:18:24.032Z,3.60
2023-04-20T21:20:50.906Z,4.42
2023-04-20T21:23:18.036Z,2.52
2023-04-20T21:25:55.396Z,4.69
2023-04-20T21:28:22.208Z,4.97
2023-04-20T21:34:48.975Z,4.64
2023-04-20T21:37:51.464Z,5.12
2023-04-20T21:40:18.094Z,4.35
2023-04-20T21:46:45.085Z,4.78
2023-04-20T21:49:11.851Z,4.39
2023-04-20T21:51:38.646Z,4.84
2023-04-20T21:54:05.733Z,4.85
2023-04-20T21:56:32.481Z,4.39
2023-04-20T21:59:00.729Z,3.66
2023-04-20T22:01:27.588Z,5.35
2023-04-20T22:03:54.481Z,4.42
2023-04-20T22:10:05.520Z,5.28
2023-04-20T22:12:52.628Z,5.32
2023-04-20T22:15:22.385Z,5.30
2023-04-20T22:17:49.426Z,3.68
2023-04-20T22:20:19.427Z,4.32
2023-04-20T22:26:33.481Z,4.72
2023-04-20T22:29:00.450Z,4.52
2023-04-20T22:31:27.388Z,5.24
2023-04-20T22:33:54.361Z,4.28
2023-04-20T22:36:21.573Z,4.32
2023-04-20T22:38:48.647Z,4.29
2023-04-20T22:41:46.821Z,5.12
2023-04-20T22:44:13.670Z,4.38
2023-04-20T22:46:40.963Z,3.91
2023-04-20T22:49:25.076Z,5.08
2023-04-20T22:51:52.843Z,4.26
2023-04-20T22:54:19.573Z,3.84
2023-04-20T22:56:46.300Z,5.13
2023-04-20T23:03:13.353Z,5.17
2023-04-20T23:05:44.543Z,4.74
2023-04-20T23:08:21.406Z,3.56
2023-04-20T23:10:48.305Z,5.23
2023-04-20T23:13:18.202Z,3.79
2023-04-20T23:15:50.186Z,5.24
2023-04-20T23:18:17.031Z,2.67
2023-04-20T23:20:44.008Z,2.52
2023-04-20T23:23:11.050Z,4.26
2023-04-20T23:25:38.297Z,3.99
2023-04-20T23:28:13.614Z,3.34
2023-04-20T23:30:40.471Z,3.46
2023-04-20T23:36:58.509Z,5.09
2023-04-20T23:39:25.374Z,4.10
2023-04-20T23:41:52.212Z,2.18
2023-04-20T23:44:18.905Z,2.62
2023-04-20T23:46:45.558Z,3.68
2023-04-20T23:49:12.199Z,4.71
2023-04-20T23:51:57.487Z,4.17
2023-04-20T23:54:24.366Z,3.66
2023-04-20T23:56:51.332Z,5.02
2023-04-20T23:59:19.296Z,4.72
